Time;durP1;ratioP1;P1;durP2;ratioP2;P2;SDS_P1;SDS_P2;PMS_P1;PMS_P2;Temp;Humidity;BMP_temperature;BMP_pressure;BME280_temperature;BME280_humidity;BME280_pressure;Samples;Min_cycle;Max_cycle;Signal;HPM_P1;HPM_P2
2021/01/09 00:02:16;;;;;;;61.15;36.78;;;103.00;2227.20;;;;;;5032409;28;20113;-56
2021/01/09 00:04:42;;;;;;;52.03;30.88;;;103.00;2227.20;;;;;;5032650;28;20104;-56
2021/01/09 00:07:10;;;;;;;53.95;32.60;;;103.10;2227.20;;;;;;5032237;28;20026;-54
2021/01/09 00:09:37;;;;;;;137.55;81.68;;;103.30;2227.20;;;;;;5032154;28;20030;-58
2021/01/09 00:12:04;;;;;;;196.02;118.95;;;103.30;2227.20;;;;;;5032183;28;20036;-54
2021/01/09 00:14:30;;;;;;;85.53;50.25;;;128.20;2252.80;;;;;;5031964;28;20037;-55
2021/01/09 00:16:55;;;;;;;67.90;41.00;;;103.20;2227.20;;;;;;5030587;28;20137;-55
2021/01/09 00:19:21;;;;;;;349.23;164.23;;;103.10;2227.20;;;;;;5032166;28;20056;-56
2021/01/09 00:21:47;;;;;;;160.95;85.10;;;103.20;2227.20;;;;;;5031810;28;20041;-56
2021/01/09 00:24:12;;;;;;;53.38;33.90;;;128.00;2252.80;;;;;;5032196;28;20025;-55
2021/01/09 00:26:38;;;;;;;48.08;29.25;;;103.30;2227.20;;;;;;5031879;28;20044;-55
2021/01/09 00:29:05;;;;;;;37.78;26.98;;;103.10;2227.20;;;;;;5032066;28;20033;-54
2021/01/09 00:31:31;;;;;;;31.48;21.40;;;103.20;2227.20;;;;;;5031338;28;20049;-56
2021/01/09 00:33:58;;;;;;;32.92;21.92;;;103.20;2227.20;;;;;;5031618;28;20037;-54
2021/01/09 00:36:24;;;;;;;35.80;20.08;;;103.30;2227.20;;;;;;5032012;28;20029;-56
2021/01/09 00:38:49;;;;;;;44.47;28.90;;;103.30;2227.20;;;;;;5031601;28;20156;-56
2021/01/09 00:41:15;;;;;;;35.65;22.17;;;128.00;2227.20;;;;;;5031710;28;20384;-56
2021/01/09 00:43:41;;;;;;;31.25;19.63;;;103.30;2227.20;;;;;;5031723;28;20379;-56
2021/01/09 00:46:06;;;;;;;35.45;20.45;;;128.00;2252.80;;;;;;5031579;28;20064;-56
2021/01/09 00:48:32;;;;;;;34.45;21.20;;;128.00;2252.80;;;;;;5031300;28;20053;-55
2021/01/09 00:50:58;;;;;;;56.13;33.15;;;128.00;2227.20;;;;;;5031434;28;20132;-58
2021/01/09 00:53:23;;;;;;;45.40;27.50;;;128.00;2227.20;;;;;;5031459;28;20052;-54
2021/01/09 00:55:49;;;;;;;41.72;24.63;;;128.10;2227.20;;;;;;5031507;28;20092;-54
2021/01/09 00:58:15;;;;;;;43.22;24.42;;;128.10;2227.20;;;;;;5031428;28;20033;-56
2021/01/09 01:00:40;;;;;;;44.42;25.58;;;128.20;2227.20;;;;;;5031325;28;20037;-54
2021/01/09 01:03:06;;;;;;;40.70;22.33;;;128.20;2227.20;;;;;;5031062;28;20025;-55
2021/01/09 01:05:32;;;;;;;41.33;27.60;;;128.30;2201.60;;;;;;5031239;28;20060;-54
2021/01/09 01:07:58;;;;;;;41.53;24.13;;;128.40;2201.60;;;;;;5031159;28;20153;-54
2021/01/09 01:10:23;;;;;;;55.75;37.20;;;128.20;2227.20;;;;;;5031336;28;20025;-54
2021/01/09 01:12:49;;;;;;;43.03;28.17;;;128.30;2201.60;;;;;;5031109;28;20033;-55
2021/01/09 01:15:15;;;;;;;61.10;39.83;;;128.30;2201.60;;;;;;5031082;28;20033;-56
2021/01/09 01:17:46;;;;;;;47.35;27.05;;;128.40;2201.60;;;;;;5031183;28;20082;-55
2021/01/09 01:20:12;;;;;;;41.40;29.00;;;128.10;2227.20;;;;;;5031071;28;20494;-55
2021/01/09 01:22:38;;;;;;;39.65;27.73;;;128.30;2201.60;;;;;;5030380;28;20486;-54
2021/01/09 01:25:04;;;;;;;42.70;28.48;;;128.20;2201.60;;;;;;5030989;28;20026;-54
2021/01/09 01:27:30;;;;;;;40.50;25.35;;;128.20;2201.60;;;;;;5030642;28;20391;-55
2021/01/09 01:29:56;;;;;;;39.85;23.92;;;128.00;2252.80;;;;;;5030666;28;20106;-55
2021/01/09 01:32:21;;;;;;;38.20;24.77;;;103.30;2227.20;;;;;;5030904;28;20533;-55
2021/01/09 01:34:47;;;;;;;33.78;22.05;;;128.10;2227.20;;;;;;5030432;28;20029;-55
2021/01/09 01:37:12;;;;;;;37.25;24.60;;;128.10;2227.20;;;;;;5030815;28;20079;-54
2021/01/09 01:39:38;;;;;;;42.83;26.25;;;128.10;2227.20;;;;;;5030382;28;20030;-53
2021/01/09 01:42:04;;;;;;;41.22;24.25;;;128.10;2227.20;;;;;;5030565;28;20037;-54
2021/01/09 01:44:31;;;;;;;45.78;27.25;;;128.20;2227.20;;;;;;5029424;28;20369;-54
2021/01/09 01:46:58;;;;;;;40.42;25.35;;;128.10;2227.20;;;;;;5030328;28;20104;-56
2021/01/09 01:49:24;;;;;;;42.00;25.90;;;128.00;2252.80;;;;;;5030524;28;20056;-54
2021/01/09 01:51:51;;;;;;;48.17;27.48;;;128.00;2227.20;;;;;;5030309;28;20038;-54
2021/01/09 01:54:19;;;;;;;38.08;25.00;;;128.10;2252.80;;;;;;5030152;28;20110;-55
2021/01/09 01:56:48;;;;;;;52.25;28.15;;;128.10;2252.80;;;;;;5030341;28;20033;-52
2021/01/09 01:59:14;;;;;;;40.97;26.05;;;128.00;2227.20;;;;;;5030609;28;20361;-55
2021/01/09 02:01:43;;;;;;;69.72;47.95;;;128.00;2252.80;;;;;;5030165;28;20063;-54
2021/01/09 02:04:09;;;;;;;51.53;30.70;;;128.00;2252.80;;;;;;5030259;28;20029;-55
2021/01/09 02:06:36;;;;;;;69.57;49.28;;;128.10;2252.80;;;;;;5030419;28;20361;-54
2021/01/09 02:09:04;;;;;;;58.28;37.55;;;128.00;2252.80;;;;;;5030339;28;20422;-54
2021/01/09 02:11:37;;;;;;;44.33;32.10;;;128.10;2227.20;;;;;;5030020;28;20037;-55
2021/01/09 02:14:08;;;;;;;51.05;29.15;;;128.10;2252.80;;;;;;5030087;28;20026;-54
2021/01/09 02:16:34;;;;;;;54.67;31.88;;;128.00;2252.80;;;;;;5030314;28;20108;-54
2021/01/09 02:19:01;;;;;;;39.35;25.83;;;128.00;2252.80;;;;;;5029795;28;20109;-54
2021/01/09 02:21:42;;;;;;;37.53;23.30;;;103.30;2227.20;;;;;;5029871;28;20037;-56
2021/01/09 02:24:17;;;;;;;36.50;21.50;;;103.20;2227.20;;;;;;5029839;28;20029;-56
2021/01/09 02:26:44;;;;;;;49.97;30.63;;;103.30;2227.20;;;;;;5030207;28;20057;-54
2021/01/09 02:29:11;;;;;;;45.28;26.80;;;103.20;2227.20;;;;;;5029900;28;20026;-54
2021/01/09 02:32:00;;;;;;;44.20;25.92;;;103.20;2227.20;;;;;;5029912;28;20026;-54
2021/01/09 02:34:47;;;;;;;36.08;22.42;;;103.30;2227.20;;;;;;5023207;28;20462;-54
2021/01/09 02:37:12;;;;;;;37.78;22.98;;;102.90;2227.20;;;;;;5022424;28;20029;-55
2021/01/09 02:39:39;;;;;;;46.20;27.73;;;102.80;2227.20;;;;;;5020483;28;20033;-54
2021/01/09 02:42:06;;;;;;;39.00;24.15;;;102.90;2227.20;;;;;;5026841;28;20029;-56
2021/01/09 02:44:31;;;;;;;52.15;32.95;;;102.90;2227.20;;;;;;5025179;28;20091;-56
2021/01/09 02:46:58;;;;;;;60.42;33.72;;;102.80;2227.20;;;;;;5019652;28;20480;-55
2021/01/09 02:49:24;;;;;;;55.08;32.72;;;102.90;2227.20;;;;;;5026661;28;20058;-56
2021/01/09 02:51:50;;;;;;;43.10;25.77;;;102.60;2227.20;;;;;;5018345;28;20038;-55
2021/01/09 02:54:15;;;;;;;42.38;26.80;;;102.50;2227.20;;;;;;5019621;28;20029;-55
2021/01/09 02:56:41;;;;;;;40.20;25.83;;;102.50;2227.20;;;;;;5022920;28;20026;-55
2021/01/09 02:59:07;;;;;;;47.17;28.98;;;102.40;2227.20;;;;;;5019965;28;20030;-56
2021/01/09 03:01:32;;;;;;;50.30;32.58;;;102.50;2227.20;;;;;;5020759;28;20034;-55
2021/01/09 03:03:58;;;;;;;52.47;31.83;;;102.50;2227.20;;;;;;5021281;28;20079;-54
2021/01/09 03:06:25;;;;;;;49.05;30.17;;;102.60;2227.20;;;;;;5021923;28;20353;-55
2021/01/09 03:08:51;;;;;;;44.78;26.85;;;102.40;2227.20;;;;;;5023864;28;20026;-54
2021/01/09 03:11:17;;;;;;;39.30;23.35;;;77.70;2227.20;;;;;;5027365;28;20029;-54
2021/01/09 03:13:43;;;;;;;44.33;26.88;;;77.70;2227.20;;;;;;5022774;28;20022;-55
2021/01/09 03:16:09;;;;;;;40.40;23.88;;;77.50;2227.20;;;;;;5025793;28;20048;-54
2021/01/09 03:18:35;;;;;;;41.67;24.60;;;77.40;2227.20;;;;;;5023198;28;20033;-56
2021/01/09 03:21:00;;;;;;;65.45;38.70;;;77.60;2227.20;;;;;;5045971;28;20064;-54
2021/01/09 03:23:26;;;;;;;48.83;28.77;;;77.60;2227.20;;;;;;5012970;28;20383;-53
2021/01/09 03:25:52;;;;;;;48.33;29.08;;;77.40;2227.20;;;;;;5013555;28;20035;-55
2021/01/09 03:28:18;;;;;;;50.95;30.30;;;77.40;2227.20;;;;;;5013200;28;20034;-56
2021/01/09 03:30:44;;;;;;;59.85;32.45;;;77.40;2227.20;;;;;;5013487;28;20447;-56
2021/01/09 03:33:10;;;;;;;53.47;32.83;;;77.50;2227.20;;;;;;5013428;28;20064;-55
2021/01/09 03:35:35;;;;;;;71.57;42.85;;;77.40;2227.20;;;;;;5012914;28;20060;-56
2021/01/09 03:38:01;;;;;;;79.63;48.15;;;77.40;2227.20;;;;;;5013030;28;20033;-55
2021/01/09 03:40:27;;;;;;;58.55;38.67;;;77.40;2227.20;;;;;;5012820;28;20036;-56
2021/01/09 03:42:53;;;;;;;42.22;25.38;;;77.30;2227.20;;;;;;5013148;28;20029;-55
2021/01/09 03:45:19;;;;;;;46.28;27.50;;;77.20;2227.20;;;;;;5012914;28;20038;-54
2021/01/09 03:47:44;;;;;;;41.08;25.67;;;77.20;2227.20;;;;;;5012595;28;20064;-56
2021/01/09 03:50:10;;;;;;;38.22;23.25;;;77.10;2227.20;;;;;;5012798;28;20029;-53
2021/01/09 03:52:36;;;;;;;37.78;23.63;;;77.10;2227.20;;;;;;5012772;28;20148;-55
2021/01/09 03:55:02;;;;;;;40.17;24.17;;;77.00;2227.20;;;;;;5012931;28;20350;-54
2021/01/09 03:57:27;;;;;;;39.35;25.25;;;77.00;2227.20;;;;;;5012704;28;20484;-55
2021/01/09 03:59:53;;;;;;;45.28;26.90;;;77.00;2227.20;;;;;;5012929;28;20030;-56
2021/01/09 04:02:19;;;;;;;37.35;23.40;;;76.90;2227.20;;;;;;5012717;28;20030;-55
2021/01/09 04:04:44;;;;;;;36.35;22.45;;;76.90;2227.20;;;;;;5012597;28;20105;-54
2021/01/09 04:07:10;;;;;;;34.53;21.33;;;76.80;2227.20;;;;;;5011515;28;20028;-55
2021/01/09 04:09:36;;;;;;;33.22;19.80;;;76.80;2227.20;;;;;;5012494;28;20400;-56
2021/01/09 04:12:02;;;;;;;35.67;21.83;;;76.80;2227.20;;;;;;5012556;28;20109;-55
2021/01/09 04:14:28;;;;;;;38.22;22.67;;;76.80;2227.20;;;;;;5012487;28;20029;-54
2021/01/09 04:16:53;;;;;;;31.52;20.02;;;52.10;2227.20;;;;;;5012425;28;20034;-53
2021/01/09 04:19:19;;;;;;;30.88;18.65;;;76.80;2227.20;;;;;;5012216;28;20030;-55
2021/01/09 04:21:46;;;;;;;36.20;19.75;;;52.10;2227.20;;;;;;5012392;28;20038;-56
2021/01/09 04:24:13;;;;;;;32.40;19.52;;;52.10;2227.20;;;;;;5012459;28;20384;-55
2021/01/09 04:26:39;;;;;;;32.10;18.08;;;52.00;2227.20;;;;;;5012271;28;20383;-53
2021/01/09 04:29:05;;;;;;;30.13;19.88;;;52.00;2227.20;;;;;;5012474;28;20030;-57
2021/01/09 04:31:30;;;;;;;30.48;18.77;;;52.10;2227.20;;;;;;5011987;28;20025;-53
2021/01/09 04:33:56;;;;;;;32.47;19.77;;;52.00;2227.20;;;;;;5011888;28;20084;-55
2021/01/09 04:36:22;;;;;;;40.97;23.48;;;52.00;2227.20;;;;;;5012177;28;20534;-53
2021/01/09 04:38:48;;;;;;;36.17;23.42;;;52.00;2227.20;;;;;;5011767;28;20104;-53
2021/01/09 04:41:18;;;;;;;41.55;24.75;;;52.10;2227.20;;;;;;5012233;28;20066;-54
2021/01/09 04:43:44;;;;;;;197.23;97.55;;;52.10;2227.20;;;;;;5012145;28;20076;-55
2021/01/09 04:46:13;;;;;;;149.23;84.75;;;51.90;2227.20;;;;;;5010803;28;20038;-54
2021/01/09 04:48:39;;;;;;;110.80;59.85;;;51.60;2227.20;;;;;;5011325;28;20092;-54
2021/01/09 04:51:05;;;;;;;97.07;53.15;;;51.70;2227.20;;;;;;5011885;28;20073;-53
2021/01/09 04:53:33;;;;;;;87.93;50.30;;;51.60;2227.20;;;;;;5011527;28;20046;-53
2021/01/09 04:55:59;;;;;;;85.97;50.25;;;51.80;2227.20;;;;;;5011516;28;20377;-55
2021/01/09 04:58:25;;;;;;;106.63;61.42;;;51.80;2227.20;;;;;;5011665;28;20057;-56
2021/01/09 05:00:54;;;;;;;84.30;46.38;;;51.80;2227.20;;;;;;5009224;28;20460;-55
2021/01/09 05:03:21;;;;;;;81.43;47.33;;;51.90;2227.20;;;;;;5009851;28;20037;-55
2021/01/09 05:05:48;;;;;;;90.18;51.08;;;52.00;2227.20;;;;;;5009911;28;20030;-55
2021/01/09 05:08:14;;;;;;;84.22;46.22;;;52.10;2227.20;;;;;;5010063;28;20108;-55
2021/01/09 05:10:40;;;;;;;90.00;49.83;;;76.80;2227.20;;;;;;5009989;28;20582;-54
2021/01/09 05:13:05;;;;;;;82.47;45.67;;;76.90;2227.20;;;;;;5009406;28;20030;-55
2021/01/09 05:15:41;;;;;;;81.18;47.70;;;77.10;2227.20;;;;;;5009978;28;20036;-55
2021/01/09 05:18:06;;;;;;;74.15;43.38;;;77.10;2227.20;;;;;;5009184;28;20491;-54
2021/01/09 05:20:33;;;;;;;66.32;36.20;;;77.10;2227.20;;;;;;5009610;28;20042;-55
2021/01/09 05:23:00;;;;;;;69.93;39.10;;;76.90;2227.20;;;;;;5009437;28;20115;-55
2021/01/09 05:25:29;;;;;;;80.07;44.20;;;76.90;2227.20;;;;;;5009081;28;20177;-56
2021/01/09 05:27:56;;;;;;;66.93;40.47;;;77.00;2227.20;;;;;;5009852;28;20096;-54
2021/01/09 05:30:23;;;;;;;77.85;49.00;;;77.10;2227.20;;;;;;5009603;28;20415;-54
2021/01/09 05:32:50;;;;;;;82.53;49.55;;;77.20;2227.20;;;;;;5009276;28;20053;-54
2021/01/09 05:35:20;;;;;;;88.30;50.38;;;77.30;2227.20;;;;;;5009532;28;20531;-54
2021/01/09 05:37:50;;;;;;;87.65;51.97;;;77.40;2227.20;;;;;;5009235;28;20041;-55
2021/01/09 05:40:17;;;;;;;81.50;46.65;;;77.30;2227.20;;;;;;5008913;28;20037;-56
2021/01/09 05:42:42;;;;;;;101.53;55.95;;;77.40;2227.20;;;;;;5009518;28;20119;-56
2021/01/09 05:45:10;;;;;;;95.85;58.17;;;77.30;2227.20;;;;;;5009191;28;20492;-54
2021/01/09 05:47:38;;;;;;;86.57;52.30;;;77.30;2227.20;;;;;;5008932;28;20077;-54
2021/01/09 05:50:06;;;;;;;85.85;51.55;;;77.40;2227.20;;;;;;5009173;28;20040;-56
2021/01/09 05:52:39;;;;;;;98.65;68.07;;;77.40;2227.20;;;;;;5008707;28;20029;-55
2021/01/09 05:55:09;;;;;;;90.10;58.50;;;77.40;2227.20;;;;;;5009193;28;20095;-54
2021/01/09 05:57:36;;;;;;;102.25;61.53;;;77.40;2227.20;;;;;;5009377;28;20029;-54
2021/01/09 06:00:10;;;;;;;109.63;62.83;;;77.40;2227.20;;;;;;5009180;28;20373;-54
2021/01/09 06:03:01;;;;;;;92.20;52.47;;;77.50;2227.20;;;;;;5008984;28;20113;-55
2021/01/09 06:05:39;;;;;;;75.40;45.15;;;77.30;2227.20;;;;;;5008613;28;20034;-55
2021/01/09 06:08:07;;;;;;;75.93;44.33;;;77.40;2227.20;;;;;;5009181;28;20029;-54
2021/01/09 06:10:37;;;;;;;112.38;66.80;;;77.30;2227.20;;;;;;5009058;28;20045;-56
2021/01/09 06:13:02;;;;;;;81.68;47.08;;;77.40;2227.20;;;;;;5008896;28;20033;-56
2021/01/09 06:15:30;;;;;;;129.38;70.93;;;77.20;2227.20;;;;;;5008661;28;20037;-55
2021/01/09 06:18:00;;;;;;;107.22;61.70;;;77.40;2227.20;;;;;;5008152;28;20927;-57
2021/01/09 06:20:26;;;;;;;99.75;60.88;;;77.40;2227.20;;;;;;5008725;28;20030;-57
2021/01/09 06:22:54;;;;;;;97.63;62.47;;;77.30;2227.20;;;;;;5008837;28;20029;-55
2021/01/09 06:25:21;;;;;;;110.30;67.22;;;77.10;2227.20;;;;;;5008663;28;20708;-56
2021/01/09 06:27:52;;;;;;;74.65;45.45;;;77.20;2227.20;;;;;;5008681;28;20030;-56
2021/01/09 06:30:20;;;;;;;97.25;57.13;;;77.30;2227.20;;;;;;5009618;28;20037;-56
2021/01/09 06:32:58;;;;;;;76.25;44.28;;;77.20;2227.20;;;;;;5012211;28;20472;-55
2021/01/09 06:35:24;;;;;;;90.07;49.10;;;77.30;2227.20;;;;;;5012603;28;20021;-54
2021/01/09 06:37:50;;;;;;;128.68;68.18;;;77.40;2227.20;;;;;;5012878;28;20037;-54
2021/01/09 06:40:16;;;;;;;323.13;168.93;;;77.50;2227.20;;;;;;5012599;28;20033;-54
2021/01/09 06:42:43;;;;;;;164.93;100.32;;;77.40;2227.20;;;;;;5012555;28;20065;-55
2021/01/09 06:45:09;;;;;;;127.28;72.50;;;77.40;2227.20;;;;;;5012041;28;20468;-54
2021/01/09 06:47:35;;;;;;;135.45;76.13;;;77.50;2227.20;;;;;;5012542;28;21067;-55
2021/01/09 06:50:19;;;;;;;324.10;155.25;;;77.60;2227.20;;;;;;5012447;28;20512;-54
2021/01/09 06:53:16;;;;;;;216.55;127.75;;;77.60;2227.20;;;;;;5012548;28;20034;-53
2021/01/09 06:55:42;;;;;;;149.32;82.22;;;77.60;2227.20;;;;;;5012341;28;20034;-55
2021/01/09 06:58:09;;;;;;;163.65;98.45;;;77.60;2227.20;;;;;;5012064;28;20495;-55
2021/01/09 07:00:38;;;;;;;142.30;84.82;;;77.50;2227.20;;;;;;5012386;28;20029;-56
2021/01/09 07:03:14;;;;;;;111.60;65.55;;;77.60;2227.20;;;;;;5012333;28;20038;-55
2021/01/09 07:05:43;;;;;;;132.52;75.93;;;77.70;2227.20;;;;;;5012077;28;20388;-55
2021/01/09 07:08:10;;;;;;;133.10;77.88;;;102.40;2227.20;;;;;;5011964;28;20030;-54
2021/01/09 07:10:45;;;;;;;137.05;82.00;;;102.50;2227.20;;;;;;5011522;28;20391;-55
2021/01/09 07:13:11;;;;;;;102.63;58.50;;;102.60;2227.20;;;;;;5012111;28;20029;-54
2021/01/09 07:15:37;;;;;;;128.15;69.30;;;102.50;2227.20;;;;;;5011998;28;20061;-56
2021/01/09 07:18:05;;;;;;;103.90;57.47;;;102.50;2227.20;;;;;;5011835;28;20724;-55
2021/01/09 07:20:44;;;;;;;97.40;59.65;;;102.60;2227.20;;;;;;5011680;28;20125;-55
2021/01/09 07:23:14;;;;;;;153.73;97.85;;;102.60;2227.20;;;;;;5011252;28;20361;-55
2021/01/09 07:25:43;;;;;;;161.88;103.60;;;102.70;2227.20;;;;;;5011849;28;20152;-54
2021/01/09 07:28:14;;;;;;;170.48;115.40;;;102.80;2201.60;;;;;;5010433;28;20069;-54
2021/01/09 07:30:41;;;;;;;172.40;114.93;;;102.90;2201.60;;;;;;5011521;28;20022;-54
2021/01/09 07:33:09;;;;;;;171.50;110.65;;;103.00;2176.00;;;;;;5011551;28;20038;-54
2021/01/09 07:35:37;;;;;;;226.70;144.07;;;103.10;2150.40;;;;;;5011548;28;20373;-54
2021/01/09 07:38:05;;;;;;;165.48;104.57;;;103.30;2124.80;;;;;;5011133;28;20048;-56
2021/01/09 07:40:51;;;;;;;198.25;120.97;;;103.30;2124.80;;;;;;5011541;28;20156;-55
2021/01/09 07:43:42;;;;;;;210.38;119.85;;;128.10;2124.80;;;;;;5011216;28;20121;-54
2021/01/09 07:46:30;;;;;;;119.90;68.70;;;128.20;2124.80;;;;;;5011372;28;20034;-55
2021/01/09 07:49:00;;;;;;;130.63;81.85;;;128.10;2124.80;;;;;;5010868;28;20060;-54
2021/01/09 07:51:48;;;;;;;103.18;61.55;;;128.30;2124.80;;;;;;5016751;28;20030;-53
2021/01/09 07:54:35;;;;;;;132.98;74.63;;;128.40;2099.20;;;;;;5030938;28;20490;-54
2021/01/09 07:57:03;;;;;;;74.70;45.97;;;128.20;2124.80;;;;;;5031217;28;20053;-56
2021/01/09 07:59:28;;;;;;;134.98;69.55;;;128.80;2073.60;;;;;;5030710;28;20710;-54
2021/01/09 08:01:54;;;;;;;145.55;88.40;;;153.80;2022.40;;;;;;5031020;28;20040;-58
2021/01/09 08:04:20;;;;;;;111.13;66.20;;;154.50;1945.60;;;;;;5062193;28;20033;-56
2021/01/09 08:06:45;;;;;;;74.13;49.10;;;180.10;1817.60;;;;;;5030607;28;20064;-58
2021/01/09 08:09:11;;;;;;;61.15;39.00;;;205.30;1715.20;;;;;;5030890;28;20021;-57
2021/01/09 08:11:44;;;;;;;64.90;41.70;;;205.00;1740.80;;;;;;5030683;28;20057;-54
2021/01/09 08:14:12;;;;;;;60.50;39.15;;;204.80;1766.40;;;;;;5030787;28;20099;-56
2021/01/09 08:16:38;;;;;;;128.40;76.13;;;179.40;1843.20;;;;;;5030239;28;20098;-55
2021/01/09 08:19:20;;;;;;;67.97;42.17;;;179.90;1843.20;;;;;;5030398;28;20439;-55
2021/01/09 08:21:48;;;;;;;68.55;42.65;;;179.40;1843.20;;;;;;5030151;28;20046;-56
2021/01/09 08:24:24;;;;;;;177.85;106.43;;;179.30;1894.40;;;;;;5032562;28;20472;-54
2021/01/09 08:26:54;;;;;;;77.53;46.63;;;179.20;1894.40;;;;;;5032114;28;20033;-54
2021/01/09 08:29:21;;;;;;;66.35;42.45;;;154.40;1920.00;;;;;;5031942;28;20437;-55
2021/01/09 08:31:51;;;;;;;79.45;46.22;;;154.20;1920.00;;;;;;5025148;28;20524;-54
2021/01/09 08:34:21;;;;;;;85.57;51.85;;;154.20;1945.60;;;;;;5029962;28;20079;-56
2021/01/09 08:37:07;;;;;;;127.03;77.45;;;153.80;1971.20;;;;;;5027788;28;20172;-57
2021/01/09 08:39:35;;;;;;;89.35;55.83;;;153.60;2022.40;;;;;;5028741;28;20020;-55
2021/01/09 08:42:01;;;;;;;133.40;78.20;;;153.70;1996.80;;;;;;5030435;28;20037;-55
2021/01/09 08:44:26;;;;;;;135.43;82.28;;;153.60;1996.80;;;;;;5019304;28;20060;-52
2021/01/09 08:46:53;;;;;;;320.98;189.85;;;153.90;1971.20;;;;;;5030521;28;20021;-55
2021/01/09 08:49:25;;;;;;;90.55;61.55;;;128.90;2022.40;;;;;;5029866;28;20059;-56
2021/01/09 08:51:57;;;;;;;77.28;45.50;;;128.90;2022.40;;;;;;5028182;28;20017;-56
2021/01/09 08:54:26;;;;;;;85.45;54.50;;;153.60;1996.80;;;;;;5029862;28;20028;-53
2021/01/09 08:56:52;;;;;;;156.98;94.95;;;153.80;1971.20;;;;;;5028812;28;20026;-54
2021/01/09 08:59:18;;;;;;;147.70;83.97;;;153.80;1996.80;;;;;;5028682;28;20026;-53
2021/01/09 09:01:53;;;;;;;96.63;61.05;;;153.80;1996.80;;;;;;5027977;28;20037;-54
2021/01/09 09:04:22;;;;;;;79.00;49.30;;;153.90;1996.80;;;;;;5028769;28;20021;-54
2021/01/09 09:07:04;;;;;;;154.23;92.10;;;154.00;1996.80;;;;;;5028669;28;20103;-54
2021/01/09 09:09:32;;;;;;;283.23;166.23;;;153.90;1996.80;;;;;;5028498;28;20020;-54
2021/01/09 09:11:58;;;;;;;641.67;437.73;;;153.90;1971.20;;;;;;5028699;28;20036;-55
2021/01/09 09:14:27;;;;;;;302.33;179.48;;;153.90;1971.20;;;;;;5028764;28;20026;-54
2021/01/09 09:17:04;;;;;;;174.57;112.32;;;153.60;1996.80;;;;;;5028782;28;20029;-53
2021/01/09 09:19:35;;;;;;;104.05;60.45;;;153.70;1996.80;;;;;;5026875;28;20427;-54
2021/01/09 09:22:01;;;;;;;52.58;33.13;;;153.70;2048.00;;;;;;5027370;28;20095;-55
2021/01/09 09:24:43;;;;;;;212.63;128.23;;;128.90;2048.00;;;;;;5027035;28;20475;-53
2021/01/09 09:27:26;;;;;;;208.40;129.60;;;153.70;2022.40;;;;;;5026907;28;20484;-53
2021/01/09 09:30:08;;;;;;;188.57;116.83;;;154.20;1971.20;;;;;;5027000;28;20025;-55
2021/01/09 09:32:34;;;;;;;60.42;39.78;;;154.10;1945.60;;;;;;5028697;28;20263;-56
2021/01/09 09:35:23;;;;;;;64.93;43.50;;;154.00;1971.20;;;;;;5028827;28;20164;-55
2021/01/09 09:37:49;;;;;;;59.25;38.65;;;153.90;1996.80;;;;;;5029059;28;20032;-55
2021/01/09 09:40:29;;;;;;;42.55;28.67;;;154.00;1971.20;;;;;;5029284;28;20029;-54
2021/01/09 09:42:54;;;;;;;244.32;140.95;;;154.20;1945.60;;;;;;5029147;28;20483;-53
2021/01/09 09:45:21;;;;;;;138.15;77.60;;;153.80;1996.80;;;;;;5028361;28;20029;-57
2021/01/09 09:47:48;;;;;;;221.98;117.00;;;128.90;2022.40;;;;;;5028808;28;20080;-55
2021/01/09 09:50:21;;;;;;;40.72;25.23;;;128.70;2022.40;;;;;;5028816;28;20026;-55
2021/01/09 09:53:00;;;;;;;53.25;31.17;;;128.70;2022.40;;;;;;5022960;28;20029;-55
2021/01/09 09:55:26;;;;;;;72.30;41.78;;;128.50;2073.60;;;;;;5028983;28;20454;-56
2021/01/09 09:58:05;;;;;;;84.57;45.17;;;128.60;2048.00;;;;;;5028562;28;20372;-54
2021/01/09 10:00:31;;;;;;;50.03;33.13;;;128.80;2048.00;;;;;;5028858;28;20379;-55
2021/01/09 10:02:57;;;;;;;40.47;25.58;;;128.80;2048.00;;;;;;5028638;28;20120;-55
2021/01/09 10:05:23;;;;;;;42.63;25.60;;;128.90;2022.40;;;;;;5027846;28;20121;-55
2021/01/09 10:07:49;;;;;;;80.22;55.08;;;128.90;2022.40;;;;;;5028527;28;20063;-54
2021/01/09 10:10:20;;;;;;;32.55;22.13;;;153.70;2022.40;;;;;;5028796;28;20026;-55
2021/01/09 10:12:55;;;;;;;36.13;23.92;;;153.70;1996.80;;;;;;5028159;28;20491;-55
2021/01/09 10:15:21;;;;;;;38.83;25.10;;;153.60;1996.80;;;;;;5028622;28;20096;-55
2021/01/09 10:17:54;;;;;;;46.00;28.85;;;153.70;1971.20;;;;;;5028500;28;20531;-55
2021/01/09 10:20:20;;;;;;;32.53;22.70;;;128.90;1996.80;;;;;;5028100;28;20040;-56
2021/01/09 10:22:45;;;;;;;73.13;52.38;;;128.80;1996.80;;;;;;5028659;28;20124;-53
2021/01/09 10:25:11;;;;;;;53.78;38.72;;;128.80;2022.40;;;;;;5027944;28;20021;-54
2021/01/09 10:27:37;;;;;;;51.53;40.40;;;153.60;1996.80;;;;;;5028615;28;20116;-54
2021/01/09 10:30:04;;;;;;;41.22;30.58;;;153.80;1996.80;;;;;;5028505;28;20029;-55
2021/01/09 10:32:30;;;;;;;33.92;23.52;;;153.80;1996.80;;;;;;5028300;28;20530;-55
2021/01/09 10:34:56;;;;;;;49.60;28.00;;;153.90;1971.20;;;;;;5028572;28;20108;-55
2021/01/09 10:37:21;;;;;;;41.65;27.50;;;153.90;1996.80;;;;;;5028001;28;20033;-56
2021/01/09 10:39:47;;;;;;;43.97;28.42;;;153.90;1996.80;;;;;;5028240;28;20100;-54
2021/01/09 10:42:14;;;;;;;86.82;50.03;;;154.10;1945.60;;;;;;5028268;28;20037;-55
2021/01/09 10:44:39;;;;;;;57.45;37.90;;;154.30;1945.60;;;;;;5028143;28;20099;-56
2021/01/09 10:47:05;;;;;;;86.18;51.38;;;154.40;1945.60;;;;;;5028374;28;20033;-54
2021/01/09 10:49:31;;;;;;;50.35;30.77;;;154.50;1920.00;;;;;;5027936;28;20053;-55
2021/01/09 10:51:56;;;;;;;39.90;24.83;;;179.30;1894.40;;;;;;5027875;28;20037;-55
2021/01/09 10:54:22;;;;;;;46.80;29.15;;;179.20;1868.80;;;;;;5028327;28;20021;-54
2021/01/09 10:56:47;;;;;;;38.03;24.92;;;179.40;1894.40;;;;;;5027996;28;20703;-54
2021/01/09 10:59:13;;;;;;;40.67;29.83;;;179.50;1843.20;;;;;;5028261;28;20507;-55
2021/01/09 11:01:39;;;;;;;39.95;24.67;;;179.20;1894.40;;;;;;5028093;28;20049;-53
2021/01/09 11:04:05;;;;;;;45.10;34.67;;;179.20;1868.80;;;;;;5027758;28;20061;-54
2021/01/09 11:06:31;;;;;;;37.75;26.40;;;179.50;1843.20;;;;;;5027834;28;20036;-55
2021/01/09 11:08:56;;;;;;;34.58;22.15;;;179.40;1868.80;;;;;;5027907;28;20057;-56
2021/01/09 11:11:22;;;;;;;56.17;42.00;;;179.30;1894.40;;;;;;5028074;28;20033;-54
2021/01/09 11:13:48;;;;;;;35.42;23.95;;;179.40;1843.20;;;;;;5027813;28;20072;-54
2021/01/09 11:16:21;;;;;;;30.75;20.55;;;179.60;1843.20;;;;;;5028890;28;20026;-54
2021/01/09 11:18:48;;;;;;;40.33;24.35;;;179.50;1843.20;;;;;;5031242;28;20036;-57
2021/01/09 11:21:14;;;;;;;59.95;42.78;;;179.70;1817.60;;;;;;5031398;28;20094;-59
2021/01/09 11:23:43;;;;;;;42.50;27.48;;;179.70;1817.60;;;;;;5031526;28;20095;-55
2021/01/09 11:26:30;;;;;;;59.53;43.50;;;179.80;1792.00;;;;;;5031311;28;20079;-58
2021/01/09 11:28:56;;;;;;;41.40;31.15;;;180.00;1792.00;;;;;;5031319;28;20037;-53
2021/01/09 11:31:23;;;;;;;37.47;25.13;;;179.90;1792.00;;;;;;5031074;28;20404;-54
2021/01/09 11:33:49;;;;;;;34.63;22.17;;;180.00;1766.40;;;;;;5031442;28;20108;-53
2021/01/09 11:36:15;;;;;;;39.95;33.53;;;179.80;1766.40;;;;;;5031338;28;20025;-56
2021/01/09 11:38:41;;;;;;;51.53;35.85;;;179.70;1766.40;;;;;;5031161;28;20480;-54
2021/01/09 11:41:08;;;;;;;45.67;28.10;;;179.90;1740.80;;;;;;5031395;28;20033;-54
2021/01/09 11:43:34;;;;;;;39.90;27.77;;;179.90;1740.80;;;;;;5031007;28;20037;-55
2021/01/09 11:46:00;;;;;;;33.15;20.40;;;179.80;1740.80;;;;;;5031126;28;20140;-53
2021/01/09 11:48:27;;;;;;;29.13;20.90;;;180.00;1740.80;;;;;;5030980;28;20041;-53
2021/01/09 11:50:54;;;;;;;31.67;20.00;;;179.70;1715.20;;;;;;5031193;28;20415;-59
2021/01/09 11:53:20;;;;;;;344.05;225.63;;;179.80;1740.80;;;;;;5031011;28;20033;-56
2021/01/09 11:55:49;;;;;;;143.35;87.95;;;179.90;1715.20;;;;;;5030623;28;20059;-54
2021/01/09 11:58:15;;;;;;;71.95;57.58;;;179.90;1715.20;;;;;;5031239;28;20022;-56
2021/01/09 12:00:40;;;;;;;131.60;95.53;;;179.60;1792.00;;;;;;5030695;28;20555;-57
2021/01/09 12:03:06;;;;;;;32.50;22.35;;;179.90;1740.80;;;;;;5030807;28;20079;-56
2021/01/09 12:05:32;;;;;;;30.70;20.30;;;180.00;1689.60;;;;;;5030998;28;20022;-57